METAR AND TAF INFORMATION
METAR FOR UTDD
ADDS - METARS form results

(0414 UTC 26 August 2019)
Data provider http://aviationweather.gov/metar/data/
 
METAR text: UTDD 260400Z 00000MPS 9999 NSC 26/09 Q1013 R09/D NOSIG RMK QFE692/0923
Conditions at: UTDD (DUSHANBE , TJ) observed 0400 UTC 26 August 2019
Temperature: 26.0°C (79°F)
Dewpoint: 9.0°C (48°F) [RH = 34%]
Pressure (altimeter): 29.91 inches Hg (1013.0 mb)
Winds: calm
Visibility: 6 or more miles (10+ km)
Ceiling: at least 12,000 feet AGL
Clouds: sky clear below 12,000 feet AGL
Weather: no significant weather observed at this time

METAR text: UTDD 260330Z VRB01MPS 9999 NSC 24/09 Q1013 R09/D NOSIG RMK QFE692/0922
Conditions at: UTDD (DUSHANBE , TJ) observed 0330 UTC 26 August 2019
Temperature: 24.0°C (75°F)
Dewpoint: 9.0°C (48°F) [RH = 38%]
Pressure (altimeter): 29.91 inches Hg (1013.0 mb)
Winds: variable direction winds at 2 MPH (2 knots; 1.0 m/s)
Visibility: 6 or more miles (10+ km)
Ceiling: at least 12,000 feet AGL
Clouds: sky clear below 12,000 feet AGL
Weather: no significant weather observed at this time

Forecast for: UTDD (DUSHANBE , TJ)
Text: TAF UTDD 260300Z 2604/2616 VRB02MPS 6000 FEW066CB SCT130
Forecast period: 0400 to 1600 UTC 26 August 2019
Forecast type: FROM: standard forecast or significant change
Winds: variable direction winds at 5 MPH (4 knots; 2.1 m/s)
Visibility: 4 miles (6 km)
Ceiling: at least 12,000 feet AGL
Clouds: few clouds at 6600 feet AGL
scattered clouds at 13000 feet AGL
Weather: no significant weather forecast for this period
Text: TEMPO 2606/2616 28007MPS
Forecast period: 0600 to 1600 UTC 26 August 2019
Forecast type: TEMPORARY: The following changes expected for less than half the time period
Winds: from the W (280 degrees) at 16 MPH (14 knots; 7.2 m/s)
Visibility: missing
Ceiling: unknown
Clouds: missing
Weather: no significant weather forecast for this period

 AIRPORT MAP

 RUNWAY INFORMATION

 AIRPORT FREQUENCIES
Type APP Name APP Frequency 127.1 MHZ
Type ATIS Name ATIS Frequency 126.2 MHZ
Type GND Name GND Frequency 121.7 MHZ
Type TWR Name TWR Frequency 119.2 MHZ

 AIRPORT NEAR NAVIGATION AIDS
Type VOR-DME Name Dushanbe Frequency 113600 KHZ
Type NDB Name Dushanbe Frequency 372 KHZ
Type NDB Name Dushanbe Frequency 420 KHZ



2018 Air Astana Virtual Airline